Welcome to Northern Hawkes Bay. New Zealand.
PWS Header
      nz Flag



Hit Counter


W3C Valid W3C Valid logo


    Wairoa

Select any of the Stations below to visit their websites.










Historic Data from Weather Underground
Select the location of interest below. Wairoa is the default. Please have patience, this Data is slow to load in.
Northern Hawkes Bay Historical Data
Daily Summary for July 27, 2017 Units:  English    Metric   Both
« Previous Day
Next Day »
Daily Weekly Monthly Yearly Custom
  High: Low: Average:
Temperature: 60.3 °F 39.6 °F 50.4 °F
Dew Point: 47.5 °F 36.3 °F 42.3 °F
Humidity: 94% 55% 75%
Wind Speed: 13.6mph 0mph 3.1mph
Wind Gust: 28.9mph - -
Wind- - WSW
Pressure: 29.8 in 29.6 in -
Precipitation: 0.09 in    
Historical Graphs
 
 
Tabular Data for July 27, 2017
Time Temperature Dew Point Pressure Wind Wind Speed Wind Gust Humidity Rainfall Rate (Hourly) solar
00:03 42.4 °F 40.3 °F 29.8 in NNW 4.5 mph 8.3 mph 92% 0 in 0 W/m2
00:08 42.3 °F 40.1 °F 29.8 in NNW 4.5 mph 8.3 mph 92% 0 in 0 W/m2
00:13 42.1 °F 39.9 °F 29.8 in NNW 3.1 mph 8.3 mph 92% 0 in 0 W/m2
00:18 41.9 °F 39.7 °F 29.8 in NNW 4.5 mph 8.3 mph 92% 0 in 0 W/m2
00:23 41.7 °F 39.6 °F 29.8 in NW 5.4 mph 7.6 mph 92% 0 in 0 W/m2
00:28 41.7 °F 39.6 °F 29.8 in NW 4.5 mph 7.6 mph 92% 0 in 0 W/m2
00:34 41.5 °F 39.7 °F 29.8 in NNW 5.4 mph 6.9 mph 93% 0 in 0 W/m2
00:39 41.5 °F 39.7 °F 29.8 in NNW 3.8 mph 7.6 mph 93% 0 in 0 W/m2
00:44 41.5 °F 39.7 °F 29.8 in NNW 6.9 mph 9.8 mph 93% 0 in 0 W/m2
00:49 42.1 °F 40.3 °F 29.8 in NNW 6 mph 11.4 mph 93% 0 in 0 W/m2
00:54 42.4 °F 40.6 °F 29.8 in NNW 3.8 mph 11.4 mph 93% 0 in 0 W/m2
00:59 42.3 °F 40.5 °F 29.8 in NW 4.5 mph 8.3 mph 93% 0 in 0 W/m2
01:04 42.1 °F 39.9 °F 29.8 in NW 5.4 mph 8.3 mph 92% 0 in 0 W/m2
01:09 41.9 °F 39.7 °F 29.8 in NW 5.4 mph 9.2 mph 92% 0 in 0 W/m2
01:14 42.1 °F 39.9 °F 29.8 in NNW 3.8 mph 9.2 mph 92% 0 in 0 W/m2
01:19 42.3 °F 40.1 °F 29.8 in North 3.1 mph 9.2 mph 92% 0 in 0 W/m2
01:24 42.1 °F 39.6 °F 29.8 in NNW 3.1 mph 6.9 mph 91% 0 in 0 W/m2
01:29 42.1 °F 39.6 °F 29.8 in NNW 3.1 mph 6.9 mph 91% 0 in 0 W/m2
01:34 42.1 °F 39.6 °F 29.8 in North 2.2 mph 6.9 mph 91% 0 in 0 W/m2
01:39 42.1 °F 39.6 °F 29.8 in NNW 1.6 mph 5.4 mph 91% 0 in 0 W/m2
01:44 41.7 °F 39 °F 29.8 in NW 0.7 mph 3.8 mph 90% 0 in 0 W/m2
01:49 41.5 °F 38.8 °F 29.8 in WNW 1.6 mph 3.1 mph 90% 0 in 0 W/m2
01:54 41.4 °F 38.7 °F 29.8 in WNW 2.2 mph 3.1 mph 90% 0 in 0 W/m2
01:59 41.4 °F 38.7 °F 29.8 in WNW 3.1 mph 3.8 mph 90% 0 in 0 W/m2
02:04 41.4 °F 38.7 °F 29.8 in NW 3.1 mph 4.5 mph 90% 0 in 0 W/m2
02:09 41.2 °F 38.5 °F 29.8 in NW 3.1 mph 5.4 mph 90% 0 in 0 W/m2
02:14 41 °F 38.3 °F 29.8 in NW 4.5 mph 6 mph 90% 0 in 0 W/m2
02:20 40.8 °F 38.5 °F 29.8 in NW 5.4 mph 7.6 mph 91% 0 in 0 W/m2
02:25 40.8 °F 38.7 °F 29.8 in NW 6 mph 8.3 mph 92% 0 in 0 W/m2
02:30 40.8 °F 38.7 °F 29.8 in NW 6 mph 9.2 mph 92% 0 in 0 W/m2
02:35 40.8 °F 38.7 °F 29.8 in NW 5.4 mph 9.2 mph 92% 0 in 0 W/m2
02:40 40.8 °F 38.7 °F 29.8 in NW 6 mph 8.3 mph 92% 0 in 0 W/m2
02:45 41 °F 38.7 °F 29.8 in NW 4.5 mph 7.6 mph 91% 0 in 0 W/m2
02:50 41.2 °F 38.5 °F 29.8 in NNW 4.5 mph 7.6 mph 90% 0 in 0 W/m2
02:55 41.4 °F 38.7 °F 29.8 in NNW 4.5 mph 7.6 mph 90% 0 in 0 W/m2
03:00 41.5 °F 38.8 °F 29.8 in NW 6 mph 8.3 mph 90% 0 in 0 W/m2
03:05 41.7 °F 38.7 °F 29.8 in NW 4.5 mph 8.3 mph 89% 0 in 0 W/m2
03:10 41.5 °F 38.3 °F 29.8 in NNW 6 mph 8.3 mph 88% 0 in 0 W/m2
03:15 41.4 °F 38.1 °F 29.8 in NW 4.5 mph 7.6 mph 88% 0 in 0 W/m2
03:20 41.2 °F 37.9 °F 29.8 in NW 6 mph 7.6 mph 88% 0 in 0 W/m2
03:25 41.2 °F 37.9 °F 29.7 in NNW 4.5 mph 8.3 mph 88% 0 in 0 W/m2
03:30 41.2 °F 37.9 °F 29.7 in NNW 4.5 mph 8.3 mph 88% 0 in 0 W/m2
03:35 41 °F 37.8 °F 29.8 in NNW 3.8 mph 6.9 mph 88% 0 in 0 W/m2
03:40 40.8 °F 37.8 °F 29.7 in NNW 4.5 mph 7.6 mph 89% 0 in 0 W/m2
03:45 40.6 °F 37.9 °F 29.7 in NNW 5.4 mph 7.6 mph 90% 0 in 0 W/m2
03:50 40.6 °F 37.9 °F 29.7 in NNW 4.5 mph 7.6 mph 90% 0 in 0 W/m2
03:55 40.6 °F 37.9 °F 29.7 in NNW 4.5 mph 6.9 mph 90% 0 in 0 W/m2
04:00 40.5 °F 37.8 °F 29.7 in NNW 3.8 mph 8.3 mph 90% 0 in 0 W/m2
04:05 40.5 °F 37.8 °F 29.7 in NNW 3.1 mph 8.3 mph 90% 0 in 0 W/m2
04:10 40.6 °F 37.9 °F 29.7 in NW 6 mph 7.6 mph 90% 0 in 0 W/m2
04:15 40.8 °F 38.1 °F 29.7 in NNW 5.4 mph 7.6 mph 90% 0 in 0 W/m2
04:20 41.2 °F 38.1 °F 29.7 in NNW 6.9 mph 9.2 mph 89% 0 in 0 W/m2
04:25 41.4 °F 38.1 °F 29.7 in NNW 3.1 mph 9.2 mph 88% 0 in 0 W/m2
04:30 41.2 °F 37.9 °F 29.7 in NNW 4.5 mph 7.6 mph 88% 0 in 0 W/m2
04:35 40.8 °F 37.6 °F 29.7 in NNW 3.1 mph 6.9 mph 88% 0 in 0 W/m2
04:40 40.6 °F 37.4 °F 29.7 in NW 2.2 mph 6 mph 88% 0 in 0 W/m2
04:45 40.5 °F 37.2 °F 29.7 in NW 0.7 mph 5.4 mph 88% 0 in 0 W/m2
04:50 39.9 °F 36.7 °F 29.7 in NNW 0.7 mph 3.8 mph 88% 0 in 0 W/m2
04:55 39.7 °F 36.5 °F 29.7 in North 2.2 mph 3.8 mph 88% 0 in 0 W/m2
05:00 39.6 °F 36.3 °F 29.7 in North 3.8 mph 5.4 mph 88% 0 in 0 W/m2
05:06 39.6 °F 36.7 °F 29.7 in NNW 3.1 mph 5.4 mph 89% 0 in 0 W/m2
05:11 39.7 °F 36.9 °F 29.7 in NW 3.1 mph 5.4 mph 89% 0 in 0 W/m2
05:16 39.7 °F 37 °F 29.7 in NW 2.2 mph 5.4 mph 90% 0 in 0 W/m2
05:21 39.6 °F 36.9 °F 29.7 in NNW 5.4 mph 9.2 mph 90% 0 in 0 W/m2
05:26 40.8 °F 38.1 °F 29.7 in North 6.9 mph 11.4 mph 90% 0 in 0 W/m2
05:31 41.7 °F 38.7 °F 29.7 in NNW 6.9 mph 11.4 mph 89% 0 in 0 W/m2
05:36 41.9 °F 38.3 °F 29.7 in NNW 3.8 mph 11.4 mph 87% 0 in 0 W/m2
05:41 41.4 °F 37.6 °F 29.7 in NNW 3.8 mph 9.2 mph 86% 0 in 0 W/m2
05:46 41.2 °F 37.2 °F 29.7 in NW 5.4 mph 8.3 mph 86% 0 in 0 W/m2
05:51 42.1 °F 38.1 °F 29.7 in NW 5.4 mph 11.4 mph 86% 0 in 0 W/m2
05:56 42.4 °F 38.7 °F 29.7 in NW 2.2 mph 11.4 mph 86% 0 in 0 W/m2
06:02 42.3 °F 38.1 °F 29.7 in NW 2.2 mph 6 mph 85% 0 in 0 W/m2
06:07 41.7 °F 37.6 °F 29.7 in NNW 1.6 mph 3.8 mph 85% 0 in 0 W/m2
06:12 41.5 °F 37.4 °F 29.7 in NNW 1.6 mph 3.8 mph 85% 0 in 0 W/m2
06:17 41 °F 36.9 °F 29.7 in SW 1.6 mph 3.1 mph 85% 0 in 0 W/m2
06:22 41.2 °F 37.2 °F 29.7 in NW 3.8 mph 4.5 mph 86% 0 in 0 W/m2
06:27 41.7 °F 37.8 °F 29.7 in NNW 5.4 mph 6.9 mph 86% 0 in 0 W/m2
06:32 42.1 °F 38.1 °F 29.7 in NW 6 mph 9.2 mph 86% 0 in 0 W/m2
06:37 42.4 °F 38.7 °F 29.7 in NNW 3.1 mph 9.8 mph 86% 0 in 0 W/m2
06:42 42.6 °F 38.5 °F 29.7 in NNW 5.4 mph 9.8 mph 85% 0 in 0 W/m2
06:48 42.6 °F 38.5 °F 29.7 in North 4.5 mph 7.6 mph 85% 0 in 0 W/m2
06:53 43.3 °F 38.8 °F 29.7 in North 6.9 mph 10.7 mph 84% 0 in 0 W/m2
06:58 44.4 °F 39.6 °F 29.7 in North 6 mph 10.7 mph 83% 0 in 0 W/m2
07:03 44.8 °F 39.4 °F 29.7 in NNW 4.5 mph 10.7 mph 81% 0 in 0 W/m2
07:08 44.8 °F 39 °F 29.7 in North 5.4 mph 10.7 mph 80% 0 in 0 W/m2
07:13 44.6 °F 38.5 °F 29.7 in North 5.4 mph 9.8 mph 79% 0 in 0 W/m2
07:18 44.4 °F 39 °F 29.7 in North 4.5 mph 9.8 mph 81% 0 in 0 W/m2
07:23 44.4 °F 39 °F 29.7 in NNW 3.1 mph 6.9 mph 81% 0 in 1 W/m2
07:28 44.4 °F 39 °F 29.7 in NNW 2.2 mph 6 mph 81% 0 in 3 W/m2
07:33 44.1 °F 38.7 °F 29.7 in NW 0.7 mph 5.4 mph 81% 0 in 6 W/m2
07:38 43.5 °F 38.1 °F 29.7 in NW 0.7 mph 3.1 mph 81% 0 in 32 W/m2
07:43 43.9 °F 38.7 °F 29.7 in Calm   2.2 mph 82% 0 in 43 W/m2
07:48 44.6 °F 39 °F 29.7 in WSW 0.7 mph 2.2 mph 81% 0 in 52 W/m2
07:53 46 °F 40.5 °F 29.7 in Calm   2.2 mph 81% 0 in 66 W/m2
07:58 47.1 °F 41.4 °F 29.7 in Calm   1.6 mph 80% 0 in 77 W/m2
08:03 47.1 °F 40.3 °F 29.7 in Calm   1.6 mph 77% 0 in 88 W/m2
08:08 47.7 °F 40.5 °F 29.7 in NW 1.6 mph 2.2 mph 76% 0 in 97 W/m2
08:13 48.2 °F 40.6 °F 29.7 in NW 1.6 mph 3.1 mph 75% 0 in 108 W/m2
08:18 48.2 °F 40.3 °F 29.7 in NW 2.2 mph 3.1 mph 74% 0 in 119 W/m2
08:23 48.6 °F 40.6 °F 29.7 in NW 1.6 mph 3.1 mph 74% 0 in 128 W/m2
08:28 48.7 °F 40.8 °F 29.7 in NW 1.6 mph 3.8 mph 74% 0 in 139 W/m2
08:33 49.1 °F 41.2 °F 29.7 in NNW 3.8 mph 6.9 mph 74% 0 in 149 W/m2
08:38 49.5 °F 41.5 °F 29.7 in NNW 6 mph 8.3 mph 74% 0 in 160 W/m2
08:43 50 °F 41.4 °F 29.7 in NNW 5.4 mph 9.2 mph 72% 0 in 168 W/m2
08:48 50.2 °F 41.5 °F 29.7 in NNW 6 mph 9.8 mph 72% 0 in 175 W/m2
08:53 50.5 °F 41.9 °F 29.7 in NNW 6 mph 9.8 mph 72% 0 in 185 W/m2
08:58 51.3 °F 42.3 °F 29.7 in NNW 5.4 mph 9.8 mph 71% 0 in 185 W/m2
09:03 51.8 °F 42.3 °F 29.7 in NNW 3.8 mph 9.8 mph 70% 0 in 198 W/m2
09:08 52.7 °F 42.4 °F 29.7 in NNW 2.2 mph 7.6 mph 68% 0 in 207 W/m2
09:13 54 °F 43 °F 29.7 in North 2.2 mph 7.6 mph 66% 0 in 218 W/m2
09:18 55 °F 43.2 °F 29.7 in NNE 3.8 mph 7.6 mph 64% 0 in 228 W/m2
09:23 55.2 °F 42.4 °F 29.7 in NNE 5.4 mph 8.3 mph 62% 0 in 238 W/m2
09:28 55.4 °F 42.3 °F 29.7 in North 5.4 mph 8.3 mph 61% 0 in 249 W/m2
09:33 55.8 °F 42.1 °F 29.7 in North 3.8 mph 8.3 mph 60% 0 in 251 W/m2
09:38 55.8 °F 42.1 °F 29.7 in North 3.8 mph 8.3 mph 60% 0 in 197 W/m2
09:43 56.7 °F 43.3 °F 29.7 in North 5.4 mph 9.8 mph 61% 0 in 103 W/m2
09:48 56.8 °F 43.5 °F 29.7 in North 4.5 mph 9.8 mph 61% 0 in 66 W/m2
09:53 56.8 °F 42.6 °F 29.7 in North 6 mph 10.7 mph 59% 0 in 61 W/m2
09:58 56.8 °F 43.2 °F 29.7 in North 6 mph 12.1 mph 60% 0 in 58 W/m2
10:03 57.6 °F 43.3 °F 29.7 in NNE 4.5 mph 12.1 mph 59% 0 in 57 W/m2
10:08 57.7 °F 43.2 °F 29.7 in North 4.5 mph 13 mph 58% 0 in 58 W/m2
10:13 58.1 °F 43.3 °F 29.7 in North 3.8 mph 13 mph 58% 0 in 59 W/m2
10:18 58.8 °F 44.1 °F 29.7 in NNE 4.5 mph 11.4 mph 58% 0 in 60 W/m2
10:23 59.5 °F 44.2 °F 29.7 in NNE 4.5 mph 11.4 mph 57% 0 in 61 W/m2
10:28 59.4 °F 44.1 °F 29.7 in NNE 4.5 mph 12.1 mph 57% 0 in 63 W/m2
10:33 59.7 °F 44.4 °F 29.7 in NNE 5.4 mph 12.1 mph 57% 0 in 64 W/m2
10:45 59.5 °F 44.8 °F 29.7 in NNW 7.6 mph 19.7 mph 58% 0 in 65 W/m2
10:53 60.1 °F 44.2 °F 29.7 in North 8.3 mph 14.5 mph 56% 0 in 107 W/m2
10:57 60.1 °F 44.8 °F 29.7 in NNW 6.9 mph 14.5 mph 57% 0 in 189 W/m2
11:03 60.3 °F 45 °F 29.7 in North 9.8 mph 14.5 mph 57% 0 in 230 W/m2
11:08 59.9 °F 45.1 °F 29.7 in North 6.9 mph 14.5 mph 58% 0 in 270 W/m2
11:13 60.1 °F 45.3 °F 29.7 in North 7.6 mph 14.5 mph 58% 0 in 285 W/m2
11:18 59.9 °F 44.6 °F 29.7 in North 7.6 mph 15.9 mph 57% 0 in 277 W/m2
11:23 60.1 °F 44.8 °F 29.7 in North 10.7 mph 17.4 mph 57% 0 in 263 W/m2
11:28 59.7 °F 43.5 °F 29.7 in NNW 13.6 mph 25.1 mph 55% 0 in 275 W/m2
11:33 59 °F 43.3 °F 29.7 in NNW 13 mph 28.9 mph 56% 0 in 263 W/m2
11:38 59.5 °F 44.2 °F 29.7 in NNW 9.8 mph 28.9 mph 57% 0 in 278 W/m2
11:43 60.1 °F 44.2 °F 29.7 in NNW 9.8 mph 19 mph 56% 0 in 259 W/m2
11:48 60.1 °F 44.2 °F 29.7 in NNW 8.3 mph 17.4 mph 56% 0 in 238 W/m2
11:53 59.9 °F 43.7 °F 29.7 in NNW 11.4 mph 20.6 mph 55% 0 in 214 W/m2
11:58 60.1 °F 43.9 °F 29.7 in NNW 7.6 mph 20.6 mph 55% 0 in 82 W/m2
12:03 58.8 °F 43.5 °F 29.7 in NNW 8.3 mph 18.3 mph 57% 0 in 87 W/m2
12:08 57.9 °F 43.2 °F 29.7 in NNW 4.5 mph 15.9 mph 58% 0 in 94 W/m2
12:13 57.9 °F 43.7 °F 29.7 in NNW 5.4 mph 15.9 mph 59% 0 in 131 W/m2
12:18 58.3 °F 44.1 °F 29.7 in North 5.4 mph 13.6 mph 59% 0 in 152 W/m2
12:23 58.6 °F 44.8 °F 29.7 in North 6.9 mph 13.6 mph 60% 0 in 178 W/m2
12:29 59.2 °F 44.4 °F 29.7 in NNW 7.6 mph 11.4 mph 58% 0 in 196 W/m2
12:34 59.5 °F 44.8 °F 29.7 in NNW 5.4 mph 11.4 mph 58% 0 in 150 W/m2
12:39 59.2 °F 44.4 °F 29.7 in North 5.4 mph 11.4 mph 58% 0 in 131 W/m2
12:43 58.6 °F 44.8 °F 29.7 in North 1.6 mph 10.7 mph 60% 0 in 121 W/m2
12:49 58.5 °F 45.1 °F 29.7 in North 1.6 mph 9.2 mph 61% 0 in 114 W/m2
12:53 58.6 °F 45.7 °F 29.7 in North 3.1 mph 8.3 mph 62% 0 in 105 W/m2
12:59 58.3 °F 45.3 °F 29.6 in North 4.5 mph 6.9 mph 62% 0 in 102 W/m2
13:04 58.1 °F 45.1 °F 29.7 in North 3.1 mph 9.2 mph 62% 0 in 118 W/m2
13:10 58.1 °F 45.1 °F 29.7 in North 3.8 mph 9.2 mph 62% 0 in 126 W/m2
13:15 58.1 °F 44.8 °F 29.6 in North 2.2 mph 6.9 mph 61% 0 in 114 W/m2
13:20 58.3 °F 45 °F 29.6 in North 1.6 mph 6.9 mph 61% 0 in 103 W/m2
13:25 58.1 °F 44.2 °F 29.6 in NNE 3.1 mph 6.9 mph 60% 0 in 93 W/m2
13:30 57.9 °F 44.6 °F 29.6 in North 1.6 mph 6.9 mph 61% 0 in 88 W/m2
13:35 57.7 °F 44.8 °F 29.6 in North 3.1 mph 6.9 mph 62% 0 in 81 W/m2
13:40 57.7 °F 45.1 °F 29.6 in North 0.7 mph 6.9 mph 63% 0 in 71 W/m2
13:45 57.7 °F 45.7 °F 29.6 in North 0.7 mph 5.4 mph 64% 0 in 65 W/m2
13:50 57.6 °F 45.1 °F 29.6 in North 2.2 mph 4.5 mph 63% 0 in 61 W/m2
13:55 57.4 °F 45 °F 29.6 in North 2.2 mph 4.5 mph 63% 0 in 60 W/m2
14:00 57.4 °F 45.3 °F 29.6 in North 1.6 mph 3.8 mph 64% 0 in 54 W/m2
14:05 57.2 °F 45.1 °F 29.6 in North 1.6 mph 3.8 mph 64% 0 in 47 W/m2
14:10 57 °F 45.3 °F 29.6 in North 1.6 mph 3.8 mph 65% 0 in 42 W/m2
14:15 57 °F 45.3 °F 29.6 in North 0.7 mph 3.1 mph 65% 0 in 45 W/m2
14:32 56.5 °F 45.3 °F 29.6 in Calm   0.7 mph 66% 0 in 39 W/m2
14:37 56.5 °F 45.3 °F 29.6 in NE 1.6 mph 3.1 mph 66% 0 in 41 W/m2
14:42 56.5 °F 45.3 °F 29.6 in NNE 0.7 mph 4.5 mph 66% 0 in 39 W/m2
14:47 56.5 °F 45 °F 29.6 in North 2.2 mph 4.5 mph 65% 0 in 35 W/m2
14:52 56.5 °F 45 °F 29.6 in NNW 0.7 mph 4.5 mph 65% 0 in 32 W/m2
14:58 56.5 °F 45 °F 29.6 in Calm   2.2 mph 65% 0 in 32 W/m2
15:02 56.3 °F 45.9 °F 29.6 in Calm   2.2 mph 68% 0 in 33 W/m2
15:08 55.9 °F 45.5 °F 29.6 in Calm   0.7 mph 68% 0 in 32 W/m2
15:12 55.8 °F 45.9 °F 29.6 in ESE 2.2 mph 3.1 mph 69% 0 in 34 W/m2
15:18 55.8 °F 45 °F 29.6 in East 0.7 mph 3.1 mph 67% 0 in 29 W/m2
15:23 55.8 °F 45 °F 29.6 in Calm   3.1 mph 67% 0 in 23 W/m2
15:27 55.8 °F 45 °F 29.6 in Calm   1.6 mph 67% 0 in 21 W/m2
15:33 55.2 °F 46 °F 29.6 in SSW 0.7 mph 1.6 mph 71% 0 in 20 W/m2
15:37 54.9 °F 46 °F 29.6 in South 0.7 mph 1.6 mph 72% 0 in 19 W/m2
15:43 54.7 °F 45.9 °F 29.6 in SW 0.7 mph 2.2 mph 72% 0 in 20 W/m2
15:47 54.3 °F 45.5 °F 29.6 in Calm   2.2 mph 72% 0 in 20 W/m2
15:52 54 °F 45.5 °F 29.6 in NW 1.6 mph 2.2 mph 73% 0 in 18 W/m2
15:57 54 °F 45.9 °F 29.6 in Calm   2.2 mph 74% 0 in 17 W/m2
16:03 54 °F 45.9 °F 29.6 in WSW 1.6 mph 3.1 mph 74% 0 in 17 W/m2
16:08 53.8 °F 45.7 °F 29.6 in WSW 0.7 mph 3.1 mph 74% 0 in 15 W/m2
16:12 53.8 °F 45.3 °F 29.6 in Calm   2.2 mph 73% 0 in 12 W/m2
16:17 54 °F 45.5 °F 29.6 in West 2.2 mph 3.8 mph 73% 0 in 13 W/m2
16:22 54.1 °F 45.3 °F 29.6 in WNW 2.2 mph 4.5 mph 72% 0 in 13 W/m2
16:28 54.7 °F 45.1 °F 29.6 in NNW 3.1 mph 6 mph 70% 0 in 10 W/m2
16:32 55.4 °F 44.2 °F 29.6 in NNW 3.1 mph 6 mph 66% 0 in 6 W/m2
16:37 55.6 °F 43.5 °F 29.6 in North 4.5 mph 6 mph 64% 0 in 4 W/m2
16:42 55.9 °F 43.2 °F 29.6 in North 2.2 mph 6 mph 62% 0 in 2 W/m2
16:47 55.8 °F 43.3 °F 29.6 in NNW 5.4 mph 6.9 mph 63% 0 in 1 W/m2
16:52 55.9 °F 42.6 °F 29.6 in NNW 3.1 mph 7.6 mph 61% 0 in 0 W/m2
16:57 56.1 °F 42.4 °F 29.6 in North 2.2 mph 9.2 mph 60% 0 in 0 W/m2
17:02 55.9 °F 42.6 °F 29.6 in North 3.1 mph 9.2 mph 61% 0 in 0 W/m2
17:07 55.8 °F 42.1 °F 29.6 in NNE 2.2 mph 8.3 mph 60% 0 in 0 W/m2
17:12 55.8 °F 42.1 °F 29.6 in NNE 1.6 mph 8.3 mph 60% 0 in 0 W/m2
17:17 55.9 °F 42.3 °F 29.6 in North 0.7 mph 6 mph 60% 0 in 0 W/m2
17:23 55.8 °F 42.1 °F 29.6 in North 1.6 mph 6 mph 60% 0 in 0 W/m2
17:28 55.8 °F 42.1 °F 29.6 in NNE 1.6 mph 6 mph 60% 0 in 0 W/m2
17:34 55.8 °F 42.1 °F 29.6 in NE 3.1 mph 5.4 mph 60% 0 in 0 W/m2
17:38 55.8 °F 42.1 °F 29.6 in NE 2.2 mph 5.4 mph 60% 0 in 0 W/m2
17:43 55.6 °F 42.4 °F 29.6 in North 3.1 mph 5.4 mph 61% 0 in 0 W/m2
17:48 55.4 °F 42.6 °F 29.6 in North 4.5 mph 6.9 mph 62% 0 in 0 W/m2
17:53 55.2 °F 43 °F 29.6 in North 3.8 mph 6.9 mph 63% 0 in 0 W/m2
17:58 55.2 °F 43 °F 29.6 in North 4.5 mph 6.9 mph 63% 0 in 0 W/m2
18:04 55.8 °F 43.3 °F 29.6 in NNW 5.4 mph 8.3 mph 63% 0 in 0 W/m2
18:08 56.1 °F 43.3 °F 29.6 in NNW 2.2 mph 8.3 mph 62% 0 in 0 W/m2
18:13 55.9 °F 43.2 °F 29.6 in NNW 1.6 mph 7.6 mph 62% 0 in 0 W/m2
18:18 55.9 °F 43.5 °F 29.6 in North 1.6 mph 3.8 mph 63% 0 in 0 W/m2
18:23 55.8 °F 43.3 °F 29.6 in NNE 0.7 mph 3.8 mph 63% 0 in 0 W/m2
18:29 55.6 °F 43.2 °F 29.6 in Calm   3.8 mph 63% 0 in 0 W/m2
18:33 55.2 °F 43 °F 29.6 in Calm   2.2 mph 63% 0 in 0 W/m2
18:38 55.2 °F 43.3 °F 29.6 in Calm   2.2 mph 64% 0 in 0 W/m2
18:44 55 °F 43.2 °F 29.6 in Calm   0.7 mph 64% 0 in 0 W/m2
18:48 54.9 °F 43 °F 29.6 in East 2.2 mph 3.1 mph 64% 0 in 0 W/m2
18:53 54.7 °F 43.2 °F 29.6 in NE 0.7 mph 3.1 mph 65% 0 in 0 W/m2
18:59 54.5 °F 43 °F 29.6 in NE 0.7 mph 4.5 mph 65% 0 in 0 W/m2
19:05 54.1 °F 43 °F 29.6 in NE 0.7 mph 4.5 mph 66% 0 in 0 W/m2
19:10 53.8 °F 43.2 °F 29.6 in ENE 0.7 mph 2.2 mph 67% 0 in 0 W/m2
19:15 53.8 °F 43.2 °F 29.6 in Calm   2.2 mph 67% 0 in 0 W/m2
19:20 53.8 °F 43.2 °F 29.6 in Calm   2.2 mph 67% 0 in 0 W/m2
19:25 53.6 °F 43.7 °F 29.6 in South 1.6 mph 3.1 mph 69% 0 in 0 W/m2
19:42 53.2 °F 44.4 °F 29.6 in ENE 3.1 mph 4.5 mph 72% 0 in 0 W/m2
19:47 53.2 °F 44.4 °F 29.6 in ENE 3.1 mph 6 mph 72% 0 in 0 W/m2
19:52 53.6 °F 44.4 °F 29.6 in NE 3.1 mph 6 mph 71% 0 in 0 W/m2
19:57 53.6 °F 44.4 °F 29.6 in ENE 0.7 mph 5.4 mph 71% 0 in 0 W/m2
20:02 53.4 °F 44.6 °F 29.6 in Calm   4.5 mph 72% 0 in 0 W/m2
20:07 53.2 °F 44.4 °F 29.6 in NE 0.7 mph 2.2 mph 72% 0 in 0 W/m2
20:12 53.2 °F 44.4 °F 29.6 in NE 0.7 mph 3.1 mph 72% 0 in 0 W/m2
20:17 53.2 °F 44.4 °F 29.6 in NE 2.2 mph 3.8 mph 72% 0 in 0 W/m2
20:22 53.6 °F 44.4 °F 29.6 in NE 2.2 mph 3.8 mph 71% 0 in 0 W/m2
20:27 53.2 °F 44.4 °F 29.6 in NNE 2.2 mph 3.8 mph 72% 0 in 0 W/m2
20:32 52.5 °F 44.1 °F 29.6 in North 0.7 mph 3.8 mph 73% 0 in 0 W/m2
20:37 52.3 °F 44.2 °F 29.6 in NNE 1.6 mph 3.1 mph 74% 0 in 0 W/m2
20:42 52.3 °F 44.2 °F 29.6 in NE 1.6 mph 3.8 mph 74% 0 in 0 W/m2
20:47 52.3 °F 44.2 °F 29.6 in NNE 0.7 mph 3.8 mph 74% 0 in 0 W/m2
20:52 52.5 °F 44.4 °F 29.6 in NE 1.6 mph 6 mph 74% 0 in 0 W/m2
20:57 52.7 °F 44.8 °F 29.6 in NE 1.6 mph 6 mph 74% 0 in 0 W/m2
21:02 52.5 °F 44.4 °F 29.6 in Calm   3.1 mph 74% 0 in 0 W/m2
21:07 52.3 °F 44.2 °F 29.6 in NE 0.7 mph 3.1 mph 74% 0 in 0 W/m2
21:12 52.2 °F 44.1 °F 29.6 in Calm   2.2 mph 74% 0 in 0 W/m2
21:17 52.2 °F 44.4 °F 29.6 in NE 1.6 mph 3.1 mph 75% 0 in 0 W/m2
21:22 52.5 °F 44.8 °F 29.6 in East 2.2 mph 3.8 mph 75% 0 in 0 W/m2
21:27 52.9 °F 44.8 °F 29.6 in East 2.2 mph 3.8 mph 74% 0 in 0 W/m2
21:32 53.1 °F 45 °F 29.6 in East 1.6 mph 3.8 mph 74% 0 in 0 W/m2
21:37 53.2 °F 45.1 °F 29.6 in East 1.6 mph 3.8 mph 74% 0 in 0 W/m2
21:42 53.2 °F 45.1 °F 29.6 in East 3.1 mph 4.5 mph 74% 0 in 0 W/m2
21:47 53.1 °F 45.3 °F 29.6 in East 1.6 mph 4.5 mph 75% 0 in 0 W/m2
21:52 52.9 °F 45.5 °F 29.6 in East 1.6 mph 4.5 mph 76% 0 in 0 W/m2
21:57 52.9 °F 45.5 °F 29.6 in East 1.6 mph 3.8 mph 76% 0 in 0 W/m2
22:02 52.7 °F 45.7 °F 29.6 in Calm   3.8 mph 77% 0 in 0 W/m2
22:07 52.5 °F 45.5 °F 29.6 in Calm   2.2 mph 77% 0 in 0 W/m2
22:13 52.5 °F 45.5 °F 29.6 in ENE 0.7 mph 3.1 mph 77% 0 in 0 W/m2
22:18 52.3 °F 45.7 °F 29.6 in SSE 1.6 mph 3.1 mph 78% 0.01 in 0 W/m2
22:23 51.6 °F 46.6 °F 29.6 in SW 0.7 mph 3.8 mph 83% 0.01 in 0 W/m2
22:28 51.3 °F 46.6 °F 29.6 in Calm   3.8 mph 84% 0.01 in 0 W/m2
22:33 50.9 °F 46.2 °F 29.6 in Calm   1.6 mph 84% 0.01 in 0 W/m2
22:38 50.7 °F 46.4 °F 29.6 in Calm     85% 0.01 in 0 W/m2
22:43 50.5 °F 46.6 °F 29.6 in Calm     86% 0.01 in 0 W/m2
22:48 50.4 °F 46.2 °F 29.6 in Calm   0.7 mph 86% 0.02 in 0 W/m2
22:53 50.2 °F 46.6 °F 29.6 in Calm   0.7 mph 87% 0.02 in 0 W/m2
22:58 50 °F 46.2 °F 29.6 in Calm   0.7 mph 87% 0.04 in 0 W/m2
23:03 50 °F 46.6 °F 29.6 in NW 0.7 mph 1.6 mph 88% 0.05 in 0 W/m2
23:08 50 °F 46.6 °F 29.6 in NW 0.7 mph 1.6 mph 88% 0.05 in 0 W/m2
23:13 49.8 °F 46.9 °F 29.6 in Calm   1.6 mph 90% 0.06 in 0 W/m2
23:18 49.6 °F 46.8 °F 29.6 in Calm   1.6 mph 90% 0.05 in 0 W/m2
23:23 49.6 °F 47.1 °F 29.6 in NNW 0.7 mph 2.2 mph 91% 0.05 in 0 W/m2
23:28 49.5 °F 47.1 °F 29.6 in North 0.7 mph 2.2 mph 92% 0.06 in 0 W/m2
23:33 49.3 °F 47.3 °F 29.6 in Calm   2.2 mph 93% 0.06 in 0 W/m2
23:38 49.1 °F 47.1 °F 29.6 in Calm   2.2 mph 93% 0.07 in 0 W/m2
23:43 49.1 °F 47.1 °F 29.6 in Calm   1.6 mph 93% 0.07 in 0 W/m2
23:48 49.1 °F 47.5 °F 29.6 in East 0.7 mph 1.6 mph 94% 0.07 in 0 W/m2
23:53 48.9 °F 47.3 °F 29.6 in Calm   1.6 mph 94% 0.07 in 0 W/m2
23:58 48.9 °F 47.3 °F 29.6 in Calm   1.6 mph 94% 0.06 in 0 W/m2
Northern Hawkes Bay. New Zealand Historic Data
Compliments of Weather Underground - 2.25 mb